Amsterdam, Montana
Current Conditions -  °F | °C
As of 4:56 PM on Thursday 18 Dec 2014 (Local Time) from KBZN Reporting Station
Overcast Overcast  
Wind Chill: -2°   Ceiling: 7000
Heat Index: -2°   Visibility: 10mi
Dew Point: -5°   Wind: 3mph
Humidity: 81%   Direction: 110°ESE
Pressure: 30.01"   Gusts: NA
Location:  45.7517°N, 111.347°W
Report Text: KBZN 182356Z 11003KT 10SM BKN070 OVC085 M02/M05 A3001 RMK AO2 SLP219 T10221050 10006 21039 51003
Loading
Personal Weather Stations






























Interactive Weather Map New forecast layout! Learn more

10-Day Weather Forecast

Advertisements
Track Severe Weather on mobile